Time;durP1;ratioP1;P1;durP2;ratioP2;P2;SDS_P1;SDS_P2;PMS_P1;PMS_P2;Temp;Humidity;BMP_temperature;BMP_pressure;BME280_temperature;BME280_humidity;BME280_pressure;Samples;Min_cycle;Max_cycle;Signal;HPM_P1;HPM_P2
2023/12/14 00:04:20;;;;;;;34.30;19.90;;;;;;;2.97;98.86;99448.02;106859;248;5004781;-55
2023/12/14 00:07:00;;;;;;;30.30;20.30;;;;;;;2.89;99.10;99450.83;110710;249;40653;-55
2023/12/14 00:12:59;;;;;;;31.20;18.20;;;;;;;2.93;99.10;99453.14;111345;240;39892;-56
2023/12/14 00:15:36;;;;;;;33.40;20.80;;;;;;;2.93;99.23;99454.95;111232;241;41202;-60
2023/12/14 00:18:19;;;;;;;33.30;21.40;;;;;;;2.94;99.25;99453.19;111238;241;41854;-60
2023/12/14 00:24:27;;;;;;;28.90;17.40;;;;;;;2.96;99.35;99465.39;111334;240;38671;-55
2023/12/14 00:27:07;;;;;;;28.80;17.70;;;;;;;2.89;99.53;99466.50;111253;241;39054;-55
2023/12/14 00:29:49;;;;;;;36.50;20.70;;;;;;;2.91;99.55;99471.25;111285;241;39630;-54
2023/12/14 00:32:34;;;;;;;29.40;18.10;;;;;;;2.96;99.52;99474.85;111243;241;39444;-55
2023/12/14 00:35:11;;;;;;;33.00;20.10;;;;;;;2.97;99.42;99474.29;111259;241;40619;-60
2023/12/14 00:37:49;;;;;;;31.00;17.90;;;;;;;2.98;99.43;99477.63;111245;241;41006;-60
2023/12/14 00:40:26;;;;;;;30.40;19.80;;;;;;;2.95;99.51;99478.13;111232;241;38855;-59
2023/12/14 00:45:56;;;;;;;28.90;17.90;;;;;;;2.97;99.58;99481.86;111029;244;39529;-56
2023/12/14 00:48:37;;;;;;;30.60;17.90;;;;;;;2.98;99.44;99486.16;111008;244;40265;-54
2023/12/14 00:51:13;;;;;;;29.50;17.70;;;;;;;2.97;99.37;99491.20;110925;244;41988;-54
2023/12/14 00:53:50;;;;;;;34.20;21.00;;;;;;;2.97;99.34;99489.84;110956;244;39993;-54
2023/12/14 00:56:27;;;;;;;34.40;19.70;;;;;;;2.97;99.42;99492.66;110966;244;39242;-53
2023/12/14 00:59:09;;;;;;;31.60;18.10;;;;;;;3.00;99.48;99497.34;110965;244;40680;-54
2023/12/14 01:01:46;;;;;;;30.30;17.90;;;;;;;3.00;99.44;99496.84;110919;245;39085;-54
2023/12/14 01:11:01;;;;;;;35.40;19.90;;;;;;;2.92;99.57;99494.14;111304;241;39327;-58
2023/12/14 01:13:39;;;;;;;;;;;;;;;2.92;99.62;99493.69;111306;242;39668;-58
2023/12/14 01:16:22;;;;;;;34.20;19.70;;;;;;;2.92;99.54;99499.05;111304;241;40396;-54
2023/12/14 01:18:58;;;;;;;37.30;19.20;;;;;;;2.91;99.68;99499.52;111252;240;38973;-59
2023/12/14 01:21:35;;;;;;;34.10;19.50;;;;;;;2.90;99.73;99501.42;111164;242;42527;-59
2023/12/14 01:24:10;;;;;;;34.30;18.10;;;;;;;2.83;99.81;99502.23;111272;243;40394;-58
2023/12/14 01:26:51;;;;;;;33.70;18.10;;;;;;;2.79;99.82;99497.45;111231;242;40415;-57
2023/12/14 01:29:27;;;;;;;33.40;19.20;;;;;;;2.81;99.73;99499.77;111302;242;39730;-57
2023/12/14 01:32:07;;;;;;;31.20;17.40;;;;;;;2.79;99.85;99496.96;111278;242;39852;-55
2023/12/14 01:34:47;;;;;;;34.70;19.70;;;;;;;2.78;99.83;99489.04;111243;242;39428;-53
2023/12/14 01:37:26;;;;;;;;;;;;;;;2.80;99.77;99487.58;111293;242;40482;-57
2023/12/14 01:40:01;;;;;;;31.70;16.90;;;;;;;2.71;99.89;99487.58;111342;241;39496;-58
2023/12/14 01:42:40;;;;;;;40.70;20.80;;;;;;;2.65;100.00;99491.09;111251;242;40149;-58
2023/12/14 01:45:18;;;;;;;34.90;17.80;;;;;;;2.68;99.98;99489.45;111261;243;39806;-53
2023/12/14 01:48:01;;;;;;;31.00;16.50;;;;;;;2.71;99.96;99492.41;111250;243;39391;-55
2023/12/14 01:50:44;;;;;;;32.10;17.60;;;;;;;2.66;99.99;99494.27;111256;243;39780;-54
2023/12/14 01:53:22;;;;;;;37.20;19.30;;;;;;;2.63;100.00;99491.89;111233;242;40296;-57
2023/12/14 01:56:06;;;;;;;33.20;17.90;;;;;;;2.65;99.98;99487.20;111232;243;39226;-59
2023/12/14 01:58:45;;;;;;;34.40;18.60;;;;;;;2.66;99.95;99490.01;111255;243;39419;-53
2023/12/14 02:01:37;;;;;;;32.10;17.20;;;;;;;2.67;99.98;99490.77;110989;243;40733;-52
2023/12/14 02:04:15;;;;;;;32.70;18.30;;;;;;;2.65;99.92;99489.02;111262;242;40429;-57
2023/12/14 02:06:55;;;;;;;32.00;17.40;;;;;;;2.64;100.00;99489.89;111296;243;39905;-57
2023/12/14 02:09:29;;;;;;;31.50;17.00;;;;;;;2.65;99.93;99490.93;111284;242;39950;-57
2023/12/14 02:12:08;;;;;;;31.80;16.20;;;;;;;2.67;99.92;99495.95;111288;243;39621;-57
2023/12/14 02:14:53;;;;;;;30.20;16.20;;;;;;;2.66;99.92;99495.10;111000;243;42250;-60
2023/12/14 02:17:35;;;;;;;30.80;17.50;;;;;;;2.62;99.96;99492.33;111267;241;39099;-61
2023/12/14 02:20:13;;;;;;;32.50;18.00;;;;;;;2.64;99.90;99489.88;111244;242;39867;-53
2023/12/14 02:22:59;;;;;;;29.70;17.30;;;;;;;2.60;99.91;99486.39;111257;242;39024;-53
2023/12/14 02:25:42;;;;;;;32.60;17.40;;;;;;;2.56;100.00;99482.90;111228;242;38997;-58
2023/12/14 02:28:24;;;;;;;34.50;17.90;;;;;;;2.56;100.00;99480.17;111268;242;40806;-57
2023/12/14 02:31:08;;;;;;;33.00;18.50;;;;;;;2.55;100.00;99476.37;111249;242;39263;-58
2023/12/14 02:33:52;;;;;;;31.90;16.80;;;;;;;2.56;99.97;99476.70;111296;242;40987;-53
2023/12/14 02:36:34;;;;;;;34.30;18.00;;;;;;;2.57;100.00;99474.21;111251;242;39679;-53
2023/12/14 02:39:14;;;;;;;35.40;18.90;;;;;;;2.62;99.95;99472.09;111271;242;39905;-57
2023/12/14 02:41:51;;;;;;;31.70;17.40;;;;;;;2.60;99.98;99476.98;111252;242;39456;-57
2023/12/14 02:44:27;;;;;;;32.10;17.40;;;;;;;2.63;99.94;99477.84;111255;242;39381;-52
2023/12/14 02:47:11;;;;;;;31.90;17.80;;;;;;;2.68;99.93;99477.48;111254;242;39176;-53
2023/12/14 02:49:48;;;;;;;30.10;16.90;;;;;;;2.64;99.88;99482.73;111255;242;40115;-57
2023/12/14 02:55:42;;;;;;;29.40;17.10;;;;;;;2.61;99.98;99482.02;111253;242;40200;-53
2023/12/14 02:58:23;;;;;;;33.40;18.40;;;;;;;2.56;99.99;99486.11;111198;241;39796;-57
2023/12/14 03:01:01;;;;;;;30.50;16.60;;;;;;;2.57;99.99;99485.96;111238;241;39773;-57
2023/12/14 03:03:35;;;;;;;31.30;18.10;;;;;;;2.56;99.88;99490.89;111252;241;40434;-57
2023/12/14 03:06:08;;;;;;;;;;;;;;;2.57;99.91;99493.80;111325;241;39071;-58
2023/12/14 03:12:17;;;;;;;;;;;;;;;2.57;99.88;99496.64;111246;240;39750;-54
2023/12/14 03:14:55;;;;;;;34.80;18.10;;;;;;;2.57;99.90;99499.07;111425;240;40993;-54
2023/12/14 03:17:32;;;;;;;34.00;18.50;;;;;;;2.61;99.90;99502.02;111483;240;40055;-53
2023/12/14 03:20:14;;;;;;;38.50;18.10;;;;;;;2.60;99.98;99506.48;111409;240;39924;-54
2023/12/14 03:22:55;;;;;;;37.10;18.60;;;;;;;2.50;99.97;99512.23;111431;240;41405;-55
2023/12/14 03:25:38;;;;;;;36.70;19.30;;;;;;;2.49;99.95;99512.55;111454;240;39634;-53
2023/12/14 03:28:15;;;;;;;36.20;19.60;;;;;;;2.50;99.90;99516.16;111442;240;39970;-51
2023/12/14 03:31:00;;;;;;;39.20;20.80;;;;;;;2.54;99.97;99519.38;111479;240;40517;-58
2023/12/14 03:33:37;;;;;;;35.60;18.40;;;;;;;2.48;100.00;99519.61;111485;240;41251;-59
2023/12/14 03:36:26;;;;;;;37.10;18.80;;;;;;;2.45;99.99;99518.47;111576;240;40245;-59
2023/12/14 03:39:08;;;;;;;36.50;19.00;;;;;;;2.42;100.00;99523.27;111521;240;40910;-56
2023/12/14 03:41:45;;;;;;;38.00;19.80;;;;;;;2.38;100.00;99525.94;111505;240;39851;-58
2023/12/14 03:44:23;;;;;;;38.90;20.60;;;;;;;2.44;100.00;99528.02;111523;240;40744;-59
2023/12/14 03:47:09;;;;;;;36.00;19.30;;;;;;;2.45;100.00;99530.44;111593;240;40471;-59
2023/12/14 03:49:46;;;;;;;35.50;18.70;;;;;;;2.42;100.00;99529.86;111609;240;40754;-58
2023/12/14 03:52:22;;;;;;;34.50;18.70;;;;;;;2.43;100.00;99530.59;111534;240;40782;-57
2023/12/14 03:55:05;;;;;;;40.40;19.10;;;;;;;2.43;100.00;99534.33;111580;240;39643;-58
2023/12/14 03:57:50;;;;;;;38.50;20.10;;;;;;;2.43;100.00;99539.35;111557;240;39458;-59
2023/12/14 04:00:30;;;;;;;45.60;20.70;;;;;;;2.47;100.00;99538.88;111562;240;39356;-58
2023/12/14 04:03:13;;;;;;;38.10;19.40;;;;;;;2.47;100.00;99536.24;111588;240;40243;-58
2023/12/14 04:05:50;;;;;;;37.60;18.70;;;;;;;2.48;100.00;99539.64;111490;240;39609;-53
2023/12/14 04:08:36;;;;;;;38.40;19.90;;;;;;;2.49;100.00;99537.34;111630;240;40150;-54
2023/12/14 04:11:15;;;;;;;37.90;20.00;;;;;;;2.50;100.00;99543.39;111514;240;40206;-59
2023/12/14 04:14:00;;;;;;;36.00;18.90;;;;;;;2.51;100.00;99541.75;111559;240;39414;-57
2023/12/14 04:16:42;;;;;;;38.20;19.10;;;;;;;2.43;100.00;99544.70;111593;240;39919;-57
2023/12/14 04:19:26;;;;;;;38.30;20.10;;;;;;;2.42;100.00;99550.11;111553;240;39341;-54
2023/12/14 04:22:07;;;;;;;37.50;20.70;;;;;;;2.39;100.00;99551.80;111262;240;39783;-53
2023/12/14 04:24:51;;;;;;;38.30;19.50;;;;;;;2.41;100.00;99558.70;111460;239;40007;-59
2023/12/14 04:27:30;;;;;;;38.00;19.90;;;;;;;2.39;100.00;99560.85;111508;239;40137;-59
2023/12/14 04:30:11;;;;;;;36.00;19.40;;;;;;;2.36;100.00;99560.11;111501;239;40060;-59
2023/12/14 04:32:54;;;;;;;34.90;19.30;;;;;;;2.34;100.00;99556.61;111526;239;39719;-59
2023/12/14 04:35:41;;;;;;;40.00;18.90;;;;;;;2.35;100.00;99556.09;111486;239;41132;-57
2023/12/14 04:38:23;;;;;;;40.80;18.90;;;;;;;2.39;100.00;99559.48;111469;239;39569;-57
2023/12/14 04:47:57;;;;;;;41.60;19.40;;;;;;;2.37;100.00;99566.44;111124;240;40367;-53
2023/12/14 04:50:38;;;;;;;37.50;19.50;;;;;;;2.44;100.00;99567.67;111497;240;40097;-58
2023/12/14 05:03:15;;;;;;;36.30;19.70;;;;;;;2.43;100.00;99589.65;111591;238;39551;-54
2023/12/14 05:05:54;;;;;;;38.70;17.60;;;;;;;2.43;100.00;99588.02;111301;240;41184;-53
2023/12/14 05:08:36;;;;;;;35.80;18.40;;;;;;;2.39;100.00;99591.47;111504;240;39937;-53
2023/12/14 05:11:18;;;;;;;;;;;;;;;2.42;100.00;99596.98;111464;240;39876;-53
2023/12/14 05:14:09;;;;;;;36.50;18.60;;;;;;;2.40;100.00;99603.59;111428;240;39173;-53
2023/12/14 05:16:47;;;;;;;42.20;19.90;;;;;;;2.39;100.00;99609.02;111457;240;39457;-53
2023/12/14 05:22:48;;;;;;;46.10;23.30;;;;;;;2.45;100.00;99620.15;111498;238;39827;-52
2023/12/14 05:35:14;;;;;;;41.60;18.10;;;;;;;2.47;100.00;99639.80;113017;240;39543;-53
2023/12/14 05:37:50;;;;;;;36.10;18.70;;;;;;;2.46;100.00;99642.84;113021;240;39407;-53
2023/12/14 05:40:26;;;;;;;40.00;18.90;;;;;;;2.47;100.00;99648.52;113016;240;39286;-53
2023/12/14 05:46:48;;;;;;;40.70;21.10;;;;;;;2.43;100.00;99657.84;112994;238;38995;-54
2023/12/14 05:49:24;;;;;;;40.80;18.80;;;;;;;2.45;100.00;99661.39;113117;240;40727;-53
2023/12/14 05:52:01;;;;;;;46.10;23.00;;;;;;;2.46;100.00;99664.66;113138;240;43158;-53
2023/12/14 05:54:38;;;;;;;44.50;21.50;;;;;;;2.48;100.00;99674.42;113143;240;41050;-57
2023/12/14 05:57:14;;;;;;;39.90;19.20;;;;;;;2.44;100.00;99669.63;113126;240;40232;-57
2023/12/14 05:59:51;;;;;;;44.40;21.00;;;;;;;2.48;100.00;99675.45;113115;240;39211;-54
2023/12/14 06:02:36;;;;;;;38.10;19.60;;;;;;;2.52;99.99;99679.70;113078;240;38986;-54
2023/12/14 06:05:14;;;;;;;43.80;20.80;;;;;;;2.52;99.98;99682.17;112913;240;39860;-52
2023/12/14 06:07:51;;;;;;;47.20;23.00;;;;;;;2.56;99.98;99690.98;112883;241;39009;-53
2023/12/14 06:10:26;;;;;;;43.60;21.90;;;;;;;2.56;99.94;99693.61;112841;241;40685;-52
2023/12/14 06:13:01;;;;;;;43.50;20.00;;;;;;;2.58;99.87;99694.12;112848;241;38963;-52
2023/12/14 06:15:38;;;;;;;41.40;20.10;;;;;;;2.55;99.78;99697.80;112835;241;39618;-52
2023/12/14 06:18:13;;;;;;;39.50;19.20;;;;;;;2.52;99.86;99702.59;112858;241;38950;-52
2023/12/14 06:20:50;;;;;;;41.70;19.50;;;;;;;2.50;99.91;99703.66;112838;241;39017;-53
2023/12/14 06:23:26;;;;;;;52.90;23.50;;;;;;;2.54;99.90;99707.85;112826;241;39891;-53
2023/12/14 06:26:03;;;;;;;49.50;24.10;;;;;;;2.57;99.78;99708.61;112845;241;40686;-56
2023/12/14 06:28:37;;;;;;;43.20;21.40;;;;;;;2.56;99.69;99712.73;112899;241;39402;-56
2023/12/14 06:31:21;;;;;;;38.30;19.10;;;;;;;2.50;99.71;99711.88;112865;241;40272;-53
2023/12/14 06:34:00;;;;;;;35.50;18.80;;;;;;;2.47;99.67;99716.23;112874;241;39994;-53
2023/12/14 06:36:36;;;;;;;34.90;18.20;;;;;;;2.43;99.74;99720.55;112823;241;39386;-52
2023/12/14 06:39:15;;;;;;;38.50;19.70;;;;;;;2.35;99.87;99723.16;112854;241;39983;-52
2023/12/14 06:41:55;;;;;;;41.90;20.10;;;;;;;2.34;99.86;99726.05;112848;241;39438;-53
2023/12/14 06:44:30;;;;;;;36.60;19.20;;;;;;;2.38;99.85;99732.95;112838;241;39737;-53
2023/12/14 06:47:15;;;;;;;38.20;19.90;;;;;;;2.42;99.92;99730.41;112857;241;40816;-56
2023/12/14 06:49:50;;;;;;;36.30;18.80;;;;;;;2.48;99.89;99734.13;112755;241;41452;-57
2023/12/14 06:52:23;;;;;;;;;;;;;;;2.44;99.93;99734.17;112848;242;39441;-53
2023/12/14 06:55:01;;;;;;;36.30;17.90;;;;;;;2.42;99.94;99736.68;112821;242;39646;-53
2023/12/14 06:57:37;;;;;;;32.40;17.10;;;;;;;2.45;99.87;99741.89;112852;242;39589;-57
2023/12/14 07:00:16;;;;;;;36.60;18.20;;;;;;;2.42;99.93;99746.10;112851;242;39783;-57
2023/12/14 07:02:51;;;;;;;37.70;19.10;;;;;;;2.44;99.80;99745.55;112853;243;39805;-52
2023/12/14 07:05:26;;;;;;;34.40;18.40;;;;;;;2.48;99.73;99748.35;112853;242;40571;-53
2023/12/14 07:08:01;;;;;;;41.90;22.20;;;;;;;2.53;99.68;99752.99;112869;242;39433;-53
2023/12/14 07:10:35;;;;;;;37.40;19.90;;;;;;;2.55;99.77;99753.67;112804;242;39627;-53
2023/12/14 07:13:14;;;;;;;42.20;20.30;;;;;;;2.51;99.90;99755.31;112849;242;40060;-53
2023/12/14 07:15:52;;;;;;;37.80;19.60;;;;;;;2.47;99.86;99754.28;112823;242;39307;-53
2023/12/14 07:18:29;;;;;;;39.90;20.60;;;;;;;2.45;99.92;99756.98;112819;242;39711;-56
2023/12/14 07:21:04;;;;;;;37.80;19.90;;;;;;;2.48;99.79;99759.32;112853;240;40292;-53
2023/12/14 07:27:08;;;;;;;37.90;19.30;;;;;;;2.55;99.53;99763.97;113063;238;40326;-53
2023/12/14 07:29:44;;;;;;;43.60;23.10;;;;;;;2.58;99.52;99767.23;113117;240;39708;-58
2023/12/14 07:32:16;;;;;;;;;;;;;;;2.61;99.59;99766.76;113125;240;39199;-58
2023/12/14 07:34:50;;;;;;;36.80;18.20;;;;;;;2.53;99.57;99771.63;113134;240;39336;-58
2023/12/14 07:37:25;;;;;;;36.30;20.10;;;;;;;2.47;99.72;99770.60;113134;240;39622;-57
2023/12/14 07:40:03;;;;;;;39.30;19.50;;;;;;;2.45;99.76;99774.41;113136;240;39639;-57
2023/12/14 07:42:37;;;;;;;39.90;20.20;;;;;;;2.47;99.90;99777.73;113113;240;40548;-53
2023/12/14 07:45:14;;;;;;;40.60;20.50;;;;;;;2.49;99.82;99771.71;113134;240;40277;-53
2023/12/14 07:47:51;;;;;;;40.50;20.80;;;;;;;2.53;99.81;99775.91;113127;240;39423;-53
2023/12/14 07:50:28;;;;;;;38.00;20.20;;;;;;;2.56;99.78;99776.09;113114;240;40879;-53
2023/12/14 07:53:02;;;;;;;38.60;20.20;;;;;;;2.57;99.68;99783.30;113118;240;40218;-53
2023/12/14 07:55:38;;;;;;;38.60;19.80;;;;;;;2.55;99.80;99785.33;113146;240;39185;-53
2023/12/14 07:58:13;;;;;;;34.30;19.20;;;;;;;2.53;99.64;99788.15;113106;240;39917;-54
2023/12/14 08:00:48;;;;;;;35.80;18.30;;;;;;;2.50;99.76;99793.23;113097;240;39190;-54
2023/12/14 08:03:23;;;;;;;31.30;18.50;;;;;;;2.51;99.72;99799.72;112154;240;1074494;-53
2023/12/14 08:05:58;;;;;;;32.60;18.50;;;;;;;2.52;99.71;99807.84;113000;240;40417;-53
2023/12/14 08:08:34;;;;;;;34.30;18.50;;;;;;;2.58;99.66;99810.36;113119;240;40215;-57
2023/12/14 08:11:10;;;;;;;31.60;18.70;;;;;;;2.59;99.55;99812.23;113107;240;39372;-57
2023/12/14 08:13:45;;;;;;;33.30;17.00;;;;;;;2.59;99.46;99814.94;113121;240;39453;-58
2023/12/14 08:16:30;;;;;;;36.60;18.30;;;;;;;2.61;99.47;99818.98;113127;240;39298;-58
2023/12/14 08:19:03;;;;;;;;;;;;;;;2.61;99.69;99819.12;113133;240;40716;-53
2023/12/14 08:21:38;;;;;;;36.90;19.00;;;;;;;2.62;99.83;99820.46;113117;240;39606;-57
2023/12/14 08:24:15;;;;;;;34.40;18.50;;;;;;;2.65;99.78;99827.08;113116;240;39755;-57
2023/12/14 08:30:31;;;;;;;39.30;20.20;;;;;;;2.61;99.77;99839.45;113081;238;40670;-58
2023/12/14 08:33:06;;;;;;;37.10;19.90;;;;;;;2.62;99.76;99847.48;113006;240;39560;-54
2023/12/14 08:35:42;;;;;;;;;;;;;;;2.64;99.84;99852.60;113021;241;39945;-54
2023/12/14 08:38:17;;;;;;;37.50;18.70;;;;;;;2.62;99.97;99855.88;113013;241;38917;-58
2023/12/14 08:40:52;;;;;;;39.30;20.00;;;;;;;2.63;99.94;99858.20;113000;241;39364;-58
2023/12/14 08:43:27;;;;;;;40.10;18.90;;;;;;;2.64;99.83;99860.47;113042;240;40053;-53
2023/12/14 08:46:01;;;;;;;39.50;19.50;;;;;;;2.66;99.72;99869.32;113008;240;39400;-54
2023/12/14 08:48:43;;;;;;;38.70;18.40;;;;;;;2.65;99.68;99868.68;113017;241;40358;-58
2023/12/14 08:51:20;;;;;;;37.40;17.40;;;;;;;2.59;99.81;99873.98;113007;240;39407;-58
2023/12/14 08:53:56;;;;;;;35.10;18.30;;;;;;;2.63;99.90;99877.93;113033;240;39374;-54
2023/12/14 08:56:33;;;;;;;35.00;18.30;;;;;;;2.65;99.74;99881.68;112997;240;40568;-57
2023/12/14 09:02:58;;;;;;;32.30;16.30;;;;;;;2.69;99.79;99881.29;113025;240;39457;-58
2023/12/14 09:05:33;;;;;;;31.80;16.90;;;;;;;2.69;99.76;99883.19;112878;240;40968;-58
2023/12/14 09:08:09;;;;;;;33.30;17.70;;;;;;;2.74;99.69;99891.98;113138;240;40138;-59
2023/12/14 09:10:44;;;;;;;37.00;19.20;;;;;;;2.75;99.62;99891.82;113138;240;39637;-59
2023/12/14 09:13:19;;;;;;;35.30;18.50;;;;;;;2.78;99.44;99893.48;113150;240;40344;-58
2023/12/14 09:15:54;;;;;;;37.50;18.70;;;;;;;2.80;99.42;99895.63;113117;240;40876;-58
2023/12/14 09:18:29;;;;;;;43.10;19.90;;;;;;;2.82;99.45;99900.59;113113;240;39795;-59
2023/12/14 09:21:04;;;;;;;37.30;20.00;;;;;;;2.78;99.72;99901.66;113150;238;40085;31
2023/12/14 09:23:40;;;;;;;38.60;18.90;;;;;;;2.78;99.79;99905.38;113017;240;39954;-57
2023/12/14 09:26:17;;;;;;;39.00;20.30;;;;;;;2.77;99.84;99904.61;113033;240;40336;-59
2023/12/14 09:28:52;;;;;;;39.30;19.60;;;;;;;2.84;99.86;99908.80;113015;240;39350;-58
2023/12/14 09:31:25;;;;;;;38.80;19.30;;;;;;;2.93;99.70;99908.38;113037;240;39542;-54
2023/12/14 09:33:59;;;;;;;43.00;20.60;;;;;;;2.95;99.59;99913.11;113023;240;39453;-54
2023/12/14 09:36:38;;;;;;;34.90;18.60;;;;;;;2.94;99.73;99912.53;113043;240;39161;-57
2023/12/14 09:39:19;;;;;;;33.40;18.30;;;;;;;2.99;99.83;99915.77;113038;240;39359;-55
2023/12/14 09:42:02;;;;;;;31.70;17.70;;;;;;;2.99;99.81;99920.88;113014;240;39958;-54
2023/12/14 09:44:39;;;;;;;32.30;17.00;;;;;;;3.02;99.58;99918.90;113057;240;39246;-54
2023/12/14 09:47:14;;;;;;;30.10;17.50;;;;;;;3.00;99.58;99917.98;113012;240;39578;-54
2023/12/14 09:49:50;;;;;;;34.00;17.70;;;;;;;3.01;99.41;99918.60;113015;240;41001;-54
2023/12/14 09:52:26;;;;;;;31.50;16.90;;;;;;;2.99;99.75;99915.22;113017;240;40661;-54
2023/12/14 09:54:59;;;;;;;33.80;17.50;;;;;;;2.94;99.60;99917.88;113018;240;40417;-54
2023/12/14 09:57:34;;;;;;;30.60;17.10;;;;;;;2.93;99.56;99923.63;113027;240;40741;-54
2023/12/14 10:00:13;;;;;;;27.90;16.20;;;;;;;2.94;99.41;99925.53;113026;240;40191;-54
2023/12/14 10:02:50;;;;;;;32.00;17.00;;;;;;;2.94;99.26;99928.71;113015;240;39365;-57
2023/12/14 10:05:27;;;;;;;32.40;16.80;;;;;;;2.89;99.32;99926.86;113013;240;41666;-58
2023/12/14 10:08:05;;;;;;;32.10;17.50;;;;;;;2.89;99.35;99932.42;113106;238;39244;-57
2023/12/14 10:10:43;;;;;;;36.20;18.60;;;;;;;2.92;99.37;99932.12;113108;240;39225;-57
2023/12/14 10:13:24;;;;;;;34.30;18.30;;;;;;;2.91;99.41;99930.27;113145;240;40004;-58
2023/12/14 10:16:00;;;;;;;34.70;17.70;;;;;;;2.93;99.56;99927.56;113146;240;40849;-58
2023/12/14 10:18:36;;;;;;;32.40;17.70;;;;;;;2.94;99.50;99924.27;113126;240;39865;-54
2023/12/14 10:21:15;;;;;;;34.90;17.10;;;;;;;2.96;99.43;99920.11;113105;240;39327;-53
2023/12/14 10:23:51;;;;;;;32.70;17.80;;;;;;;2.97;99.48;99921.42;113085;240;40615;-59
2023/12/14 10:26:30;;;;;;;33.90;17.50;;;;;;;2.96;99.60;99926.70;113086;240;40425;-64
2023/12/14 10:29:05;;;;;;;34.80;19.40;;;;;;;3.02;99.43;99928.65;113099;240;39213;-60
2023/12/14 10:31:42;;;;;;;37.20;20.50;;;;;;;3.04;99.33;99933.08;113126;240;39631;-59
2023/12/14 10:34:17;;;;;;;39.90;22.10;;;;;;;3.08;99.50;99930.02;113103;240;39531;-59
2023/12/14 10:36:51;;;;;;;37.40;19.60;;;;;;;3.05;99.73;99934.75;113131;240;40254;-58
2023/12/14 10:39:27;;;;;;;33.20;18.70;;;;;;;3.07;99.68;99936.20;113100;240;39260;-58
2023/12/14 10:42:07;;;;;;;33.00;18.50;;;;;;;3.05;99.65;99942.92;113096;240;39009;-55
2023/12/14 10:44:45;;;;;;;33.70;17.60;;;;;;;3.01;99.60;99941.91;113132;240;39641;-54
2023/12/14 10:47:22;;;;;;;31.80;16.80;;;;;;;3.02;99.75;99942.89;113181;240;40103;-55
2023/12/14 10:53:43;;;;;;;29.90;16.20;;;;;;;3.12;99.54;99950.05;113031;240;39887;-56
2023/12/14 10:56:19;;;;;;;28.60;15.70;;;;;;;3.13;99.49;99951.91;112859;241;39563;-54
2023/12/14 10:58:57;;;;;;;34.30;17.70;;;;;;;3.10;99.57;99954.68;112816;241;41231;-55
2023/12/14 11:01:39;;;;;;;31.50;16.90;;;;;;;3.15;99.72;99961.09;112833;241;40255;-54
2023/12/14 11:04:17;;;;;;;30.20;15.50;;;;;;;3.12;99.53;99962.16;112885;241;39206;-54
2023/12/14 11:06:58;;;;;;;33.10;17.30;;;;;;;3.07;99.49;99968.19;112843;241;40616;-54
2023/12/14 11:09:33;;;;;;;29.10;16.80;;;;;;;3.08;99.41;99976.44;112838;241;39923;-54
2023/12/14 11:12:13;;;;;;;35.60;18.40;;;;;;;3.10;99.35;99976.77;112826;241;39493;-54
2023/12/14 11:14:52;;;;;;;29.90;16.50;;;;;;;3.09;99.40;99981.69;112845;241;39794;-54
2023/12/14 11:17:29;;;;;;;32.20;16.30;;;;;;;3.10;99.38;99983.52;112833;241;39488;-54
2023/12/14 11:20:29;;;;;;;30.30;16.80;;;;;;;3.10;99.31;99987.44;112848;241;40704;-54
2023/12/14 11:23:13;;;;;;;29.20;17.40;;;;;;;3.11;99.47;99988.98;112853;241;39037;-54
2023/12/14 11:29:11;;;;;;;28.40;14.70;;;;;;;3.12;99.43;99991.48;112865;238;39422;-55
2023/12/14 11:31:46;;;;;;;;;;;;;;;3.14;99.30;99995.17;113112;240;40458;-59
2023/12/14 11:34:20;;;;;;;29.30;15.90;;;;;;;3.17;99.27;99995.46;113126;240;40605;-58
2023/12/14 11:36:58;;;;;;;30.00;16.40;;;;;;;3.16;99.38;99994.78;113119;240;39893;-54
2023/12/14 11:39:38;;;;;;;29.70;16.20;;;;;;;3.19;99.28;99999.33;113113;240;39745;-54
2023/12/14 11:42:18;;;;;;;29.80;17.00;;;;;;;3.16;99.30;100003.95;113116;240;38699;-59
2023/12/14 11:44:52;;;;;;;28.10;15.40;;;;;;;3.13;99.37;100003.70;113106;240;39727;-59
2023/12/14 11:47:29;;;;;;;25.70;13.80;;;;;;;3.11;99.52;100010.50;113110;240;39541;-58
2023/12/14 11:50:03;;;;;;;26.00;13.70;;;;;;;3.05;99.59;100013.73;113104;240;39554;-59
2023/12/14 11:52:40;;;;;;;25.10;14.40;;;;;;;3.02;99.54;100012.39;113100;240;40881;-58
2023/12/14 11:55:17;;;;;;;25.70;14.10;;;;;;;3.02;99.45;100012.96;113100;240;40733;-58
2023/12/14 11:57:53;;;;;;;23.30;13.50;;;;;;;3.03;99.41;100015.54;113118;240;39139;-57
2023/12/14 12:00:33;;;;;;;22.60;13.20;;;;;;;3.04;99.39;100017.20;113120;240;41101;-54
2023/12/14 12:03:17;;;;;;;26.40;14.30;;;;;;;3.04;99.45;100022.55;113105;240;39366;-54
2023/12/14 12:09:45;;;;;;;24.50;13.70;;;;;;;3.04;99.25;100021.09;112726;240;39865;-57
2023/12/14 12:12:20;;;;;;;26.20;14.90;;;;;;;3.08;99.18;100022.70;113177;240;40950;-58
2023/12/14 12:14:55;;;;;;;23.60;14.10;;;;;;;3.14;99.29;100024.20;113170;240;39449;-57
2023/12/14 12:17:37;;;;;;;21.90;13.50;;;;;;;3.15;99.22;100023.88;113203;240;39810;-58
2023/12/14 12:20:13;;;;;;;24.40;14.80;;;;;;;3.13;99.26;100026.59;113183;240;39387;-57
2023/12/14 12:22:47;;;;;;;25.40;14.20;;;;;;;3.20;98.96;100030.92;113173;240;40184;-54
2023/12/14 12:25:27;;;;;;;24.30;13.50;;;;;;;3.19;99.02;100032.94;113182;240;41287;-54
2023/12/14 12:28:03;;;;;;;24.60;13.90;;;;;;;3.15;98.90;100036.40;113217;240;39291;-57
2023/12/14 12:30:43;;;;;;;26.50;15.00;;;;;;;3.14;98.85;100044.70;113169;240;40589;-58
2023/12/14 12:33:17;;;;;;;25.70;14.50;;;;;;;3.11;98.62;100048.54;112661;243;39043;-58
2023/12/14 12:35:52;;;;;;;26.70;16.80;;;;;;;3.08;98.69;100057.35;112858;243;39202;-54
2023/12/14 12:38:26;;;;;;;;;;;;;;;3.07;98.69;100062.09;112887;243;39201;-54
2023/12/14 12:41:01;;;;;;;31.60;17.10;;;;;;;2.99;98.62;100059.05;112878;243;39250;-54
2023/12/14 12:43:38;;;;;;;27.40;15.40;;;;;;;2.96;98.72;100059.35;112837;243;40072;-54
2023/12/14 12:46:13;;;;;;;27.90;15.50;;;;;;;2.92;98.71;100058.74;112803;243;39974;-54
2023/12/14 12:48:51;;;;;;;27.90;15.90;;;;;;;2.89;98.81;100059.53;112826;243;39697;-54
2023/12/14 12:51:27;;;;;;;31.20;16.60;;;;;;;2.87;98.84;100062.58;112847;243;39881;-54
2023/12/14 12:54:03;;;;;;;28.60;15.00;;;;;;;2.84;98.75;100062.48;112846;243;39389;-53
2023/12/14 12:56:39;;;;;;;31.70;15.90;;;;;;;2.83;98.78;100067.11;112831;243;40224;-54
2023/12/14 12:59:14;;;;;;;30.00;17.40;;;;;;;2.82;98.84;100065.08;112842;243;39564;-54
2023/12/14 13:01:54;;;;;;;31.50;16.90;;;;;;;2.85;98.84;100071.66;112884;243;40381;-53
2023/12/14 13:04:31;;;;;;;29.90;17.20;;;;;;;2.82;98.88;100073.77;112845;243;40069;-53
2023/12/14 13:07:09;;;;;;;30.10;15.80;;;;;;;2.81;99.04;100077.71;112834;243;39527;-56
2023/12/14 13:09:44;;;;;;;31.40;17.60;;;;;;;2.84;98.99;100077.08;112807;243;40230;-55
2023/12/14 13:12:21;;;;;;;31.20;18.50;;;;;;;2.83;98.94;100078.99;112666;243;41799;-54
2023/12/14 13:15:02;;;;;;;35.10;18.90;;;;;;;2.82;99.01;100080.48;112854;243;40017;-53
2023/12/14 13:17:36;;;;;;;31.80;18.10;;;;;;;2.86;98.85;100079.02;113038;240;39339;-57
2023/12/14 13:20:12;;;;;;;33.30;18.80;;;;;;;2.89;98.92;100085.34;113024;240;38912;-58
2023/12/14 13:22:48;;;;;;;31.40;18.30;;;;;;;2.93;98.75;100089.89;112964;240;41719;31
2023/12/14 13:25:26;;;;;;;33.00;18.10;;;;;;;2.90;98.69;100097.02;112891;240;39798;-54
2023/12/14 13:28:00;;;;;;;32.20;17.20;;;;;;;2.91;98.84;100097.08;112833;240;39628;-54
2023/12/14 13:33:59;;;;;;;31.20;16.70;;;;;;;2.96;98.75;100102.98;113070;240;39709;-54
2023/12/14 13:36:33;;;;;;;33.40;17.90;;;;;;;2.95;98.73;100106.23;113000;240;40466;-54
2023/12/14 13:39:07;;;;;;;34.30;17.70;;;;;;;2.92;98.82;100111.59;113012;240;40977;-53
2023/12/14 13:41:41;;;;;;;34.00;18.80;;;;;;;2.90;98.76;100115.64;113031;240;39864;-58